Williams Lake Airport
CYWL : now visible

Airfield :











YOU CAN JOIN US ON...

 
LOGIN :

Register | Disclaimer

   EN    FR    IT 

 









Legend :    VFR   Marginal VFR   IFR   Intensive IFR   Very Intensive IFR
Visi :
Ceiling :
>= 8 km
>= 3000ft
5 to 8 km
1000 to 3000 ft
1500m to 5 km
500 to 1000 ft
800 to 1500m
200 to 500 ft
< 800m
< 200 ft
Symbols :   Thunderstorms  Fog  Heavy snow  Heavy precipitations  Wind > 20 kt







- Airport Elevation : 3085 ft
- IATA code : YWL


CYWL - Williams Lake

CURRENT METAR :
  • 190600Z 21003KT 15SM FEW100 07/05 A3002 RMK AC1 AC TR SLP182

EXPIRED METARs :
  • 190500Z 00000KT 15SM FEW100 07/05 A3001 RMK AC1 AC TR SLP182
  • 190400Z 00000KT 15SM FEW100 08/05 A3000 RMK AC1 AC TR SLP178

TAF TAF CYWL
Valid from the 19 at 01:00 until the 19 at 13:00 UTC


190038Z 1901/1913 32005KT P6SM FEW040 FEW100
FM191100 VRB03KT P6SM FEW040 SCT140
PROB30 1911/1913 1SM BR BKN003 RMK NXT FCST BY 190700Z
No reported NOTAMs for that airfield.



MET'MAP, your aeronautical weather chart ! - Copyright ORBIFLY December 2007 - Disclaimer

ORBIFLY MET'MAP TEAM :

Programming & Development : Alexandra Zaïnal
Concept & Development : Baudouin d'Aumeries
Co-Development & Prog : Marc-Olivier Méhu
Technical & hardware support : Manuel Goepfert

Contact : metmap@orbifly.com




SOURCES & CREDITS :

   NOAA       Earth
Advisory